Time;durP1;ratioP1;P1;durP2;ratioP2;P2;SDS_P1;SDS_P2;PMS_P1;PMS_P2;Temp;Humidity;BMP_temperature;BMP_pressure;BME280_temperature;BME280_humidity;BME280_pressure;Samples;Min_cycle;Max_cycle;Signal;HPM_P1;HPM_P2
2021/04/25 00:01:27;;;;;;;13.18;6.00;;;;;;;;;;5013013;28;20105;-70
2021/04/25 00:03:52;;;;;;;12.93;5.90;;;;;;;;;;5009215;28;20077;-69
2021/04/25 00:06:18;;;;;;;11.20;5.90;;;;;;;;;;5017424;28;20029;-70
2021/04/25 00:08:44;;;;;;;14.48;7.35;;;;;;;;;;5007329;28;20060;-70
2021/04/25 00:11:10;;;;;;;11.88;6.30;;;;;;;;;;5005806;28;20060;-69
2021/04/25 00:13:36;;;;;;;13.95;7.35;;;;;;;;;;5023490;28;20029;-70
2021/04/25 00:16:02;;;;;;;15.13;6.95;;;;;;;;;;5018626;28;20033;-70
2021/04/25 00:18:28;;;;;;;16.50;7.93;;;;;;;;;;5018764;28;20117;-69
2021/04/25 00:20:54;;;;;;;16.27;7.40;;;;;;;;;;5006691;28;20027;-69
2021/04/25 00:23:20;;;;;;;12.75;6.80;;;;;;;;;;5021702;28;20399;-70
2021/04/25 00:25:46;;;;;;;14.18;7.93;;;;;;;;;;4998314;28;20563;-72
2021/04/25 00:28:12;;;;;;;12.60;6.50;;;;;;;;;;5009811;28;20395;-70
2021/04/25 00:30:38;;;;;;;16.92;7.07;;;;;;;;;;5012019;28;20118;-70
2021/04/25 00:33:04;;;;;;;13.65;7.53;;;;;;;;;;5016680;28;20036;-71
2021/04/25 00:35:30;;;;;;;13.90;6.60;;;;;;;;;;5020132;28;20025;-71
2021/04/25 00:37:56;;;;;;;14.35;6.30;;;;;;;;;;4999763;28;20214;-71
2021/04/25 00:40:22;;;;;;;16.20;7.68;;;;;;;;;;5010542;28;20447;-72
2021/04/25 00:42:49;;;;;;;17.00;8.02;;;;;;;;;;5006378;28;20600;-69
2021/04/25 00:45:16;;;;;;;13.57;6.70;;;;;;;;;;5000557;28;20472;-70
2021/04/25 00:47:46;;;;;;;18.13;8.00;;;;;;;;;;5008111;28;20394;-70
2021/04/25 00:50:12;;;;;;;13.50;7.63;;;;;;;;;;5017637;28;20037;-70
2021/04/25 00:52:41;;;;;;;19.20;8.32;;;;;;;;;;5009880;28;20064;-69
2021/04/25 00:55:07;;;;;;;18.63;8.13;;;;;;;;;;5012205;28;20703;-71
2021/04/25 00:57:34;;;;;;;20.60;8.18;;;;;;;;;;5021756;28;20048;-70
2021/04/25 01:00:00;;;;;;;15.73;8.57;;;;;;;;;;5005069;28;20114;-70
2021/04/25 01:02:26;;;;;;;18.08;8.70;;;;;;;;;;5012775;28;20036;-70
2021/04/25 01:04:52;;;;;;;16.80;8.88;;;;;;;;;;5010799;28;20034;-69
2021/04/25 01:07:19;;;;;;;18.80;8.10;;;;;;;;;;5008387;28;20376;-70
2021/04/25 01:09:45;;;;;;;14.60;7.30;;;;;;;;;;5014736;28;20018;-70
2021/04/25 01:12:11;;;;;;;14.63;6.95;;;;;;;;;;5021484;28;20030;-70
2021/04/25 01:14:37;;;;;;;14.38;8.38;;;;;;;;;;5010165;28;20061;-69
2021/04/25 01:17:03;;;;;;;16.00;7.15;;;;;;;;;;5018607;28;20797;-69
2021/04/25 01:19:29;;;;;;;13.55;7.78;;;;;;;;;;5011535;28;20038;-69
2021/04/25 01:21:55;;;;;;;13.80;6.43;;;;;;;;;;5021689;28;20543;-71
2021/04/25 01:24:21;;;;;;;13.95;6.10;;;;;;;;;;5008930;28;20129;-70
2021/04/25 01:26:47;;;;;;;12.90;6.72;;;;;;;;;;5008151;28;20025;-70
2021/04/25 01:29:13;;;;;;;14.35;6.47;;;;;;;;;;5013636;28;20065;-70
2021/04/25 01:31:39;;;;;;;10.27;5.55;;;;;;;;;;5010836;28;20037;-70
2021/04/25 01:34:05;;;;;;;14.40;5.75;;;;;;;;;;5019186;28;20026;-70
2021/04/25 01:36:31;;;;;;;12.50;6.80;;;;;;;;;;5015629;28;20030;-70
2021/04/25 01:38:57;;;;;;;12.02;6.15;;;;;;;;;;5004516;28;20037;-70
2021/04/25 01:41:23;;;;;;;12.35;6.60;;;;;;;;;;5015736;28;20025;-70
2021/04/25 01:43:49;;;;;;;12.68;6.22;;;;;;;;;;5020016;28;20037;-70
2021/04/25 01:46:16;;;;;;;12.73;6.22;;;;;;;;;;5011043;28;20034;-70
2021/04/25 01:48:43;;;;;;;15.93;6.55;;;;;;;;;;5014450;28;20060;-70
2021/04/25 01:51:09;;;;;;;12.77;5.63;;;;;;;;;;5014022;28;20036;-70
2021/04/25 01:53:35;;;;;;;16.55;6.13;;;;;;;;;;5009318;28;20029;-70
2021/04/25 01:56:02;;;;;;;10.30;5.72;;;;;;;;;;5004869;28;20026;-70
2021/04/25 01:58:28;;;;;;;13.50;6.50;;;;;;;;;;5009116;28;20583;-70
2021/04/25 02:00:54;;;;;;;11.60;6.03;;;;;;;;;;5018954;28;20018;-70
2021/04/25 02:03:20;;;;;;;16.38;6.70;;;;;;;;;;5007654;28;20073;-70
2021/04/25 02:05:46;;;;;;;13.65;5.95;;;;;;;;;;5019730;28;20026;-71
2021/04/25 02:08:14;;;;;;;8.98;4.95;;;;;;;;;;5011349;28;20034;-70
2021/04/25 02:10:40;;;;;;;10.05;4.43;;;;;;;;;;5014665;28;20384;-70
2021/04/25 02:13:06;;;;;;;9.63;4.15;;;;;;;;;;5019170;28;20033;-70
2021/04/25 02:15:33;;;;;;;6.43;3.47;;;;;;;;;;5003305;28;20060;-69
2021/04/25 02:17:59;;;;;;;6.28;3.95;;;;;;;;;;5010978;28;20403;-70
2021/04/25 02:20:25;;;;;;;8.18;4.82;;;;;;;;;;5012573;28;20025;-70
2021/04/25 02:22:52;;;;;;;10.00;4.10;;;;;;;;;;5001967;28;20106;-70
2021/04/25 02:25:18;;;;;;;7.53;3.35;;;;;;;;;;5006685;28;20120;-70
2021/04/25 02:27:45;;;;;;;8.65;3.50;;;;;;;;;;5001708;28;20015;-70
2021/04/25 02:30:12;;;;;;;9.82;3.97;;;;;;;;;;5008672;28;20033;-70
2021/04/25 02:32:38;;;;;;;5.93;3.83;;;;;;;;;;5009979;28;20025;-70
2021/04/25 02:35:08;;;;;;;8.80;3.25;;;;;;;;;;5009368;28;20034;-70
2021/04/25 02:37:34;;;;;;;8.38;3.78;;;;;;;;;;5023066;28;20028;-70
2021/04/25 02:40:00;;;;;;;7.03;3.67;;;;;;;;;;5006884;28;20096;-70
2021/04/25 02:42:26;;;;;;;11.88;3.78;;;;;;;;;;5008770;28;20539;-70
2021/04/25 02:44:52;;;;;;;7.50;3.70;;;;;;;;;;5004959;28;20080;-70
2021/04/25 02:47:18;;;;;;;6.95;3.42;;;;;;;;;;5003259;28;20030;-70
2021/04/25 02:49:44;;;;;;;9.98;3.97;;;;;;;;;;5006317;28;20095;-70
2021/04/25 02:52:10;;;;;;;12.38;4.30;;;;;;;;;;5008345;28;20026;-70
2021/04/25 02:54:36;;;;;;;10.82;4.15;;;;;;;;;;5005082;28;20030;-69
2021/04/25 02:57:02;;;;;;;10.05;4.30;;;;;;;;;;5015148;28;20505;-69
2021/04/25 02:59:28;;;;;;;8.30;3.83;;;;;;;;;;5007288;28;20025;-70
2021/04/25 03:01:54;;;;;;;10.23;3.90;;;;;;;;;;5023649;28;20026;-70
2021/04/25 03:04:20;;;;;;;8.10;4.45;;;;;;;;;;5020625;28;20028;-70
2021/04/25 03:06:46;;;;;;;11.15;3.92;;;;;;;;;;4999214;28;20053;-69
2021/04/25 03:09:12;;;;;;;8.48;3.80;;;;;;;;;;5014545;28;20060;-71
2021/04/25 03:11:38;;;;;;;9.63;4.37;;;;;;;;;;5016786;28;20056;-70
2021/04/25 03:14:04;;;;;;;10.43;4.32;;;;;;;;;;5014222;28;20242;-70
2021/04/25 03:16:29;;;;;;;8.75;4.13;;;;;;;;;;5015495;28;20034;-70
2021/04/25 03:18:55;;;;;;;6.90;3.28;;;;;;;;;;5023293;28;20033;-70
2021/04/25 03:21:21;;;;;;;7.78;3.67;;;;;;;;;;5020288;28;20030;-69
2021/04/25 03:23:47;;;;;;;8.98;3.50;;;;;;;;;;5016327;28;20040;-70
2021/04/25 03:26:13;;;;;;;9.60;3.97;;;;;;;;;;5012756;28;20064;-70
2021/04/25 03:28:39;;;;;;;9.88;4.22;;;;;;;;;;5011316;28;20026;-69
2021/04/25 03:31:05;;;;;;;8.07;3.42;;;;;;;;;;5005472;28;20029;-70
2021/04/25 03:33:31;;;;;;;7.63;3.97;;;;;;;;;;5012688;28;20033;-69
2021/04/25 03:35:57;;;;;;;9.07;4.03;;;;;;;;;;5017181;28;20041;-70
2021/04/25 03:38:25;;;;;;;8.80;3.58;;;;;;;;;;4993826;28;20026;-70
2021/04/25 03:40:51;;;;;;;10.55;3.92;;;;;;;;;;5007074;28;20490;-70
2021/04/25 03:43:19;;;;;;;6.15;3.10;;;;;;;;;;5003325;28;20042;-70
2021/04/25 03:45:45;;;;;;;7.32;3.17;;;;;;;;;;5005430;28;20036;-70
2021/04/25 03:48:11;;;;;;;8.10;3.80;;;;;;;;;;5009347;28;20034;-69
2021/04/25 03:50:37;;;;;;;8.77;4.50;;;;;;;;;;4999765;28;20037;-69
2021/04/25 03:53:03;;;;;;;7.47;3.45;;;;;;;;;;5010637;28;20034;-70
2021/04/25 03:55:29;;;;;;;8.85;3.83;;;;;;;;;;4993781;28;20368;-70
2021/04/25 03:57:56;;;;;;;11.05;3.95;;;;;;;;;;4994483;28;20038;-70
2021/04/25 04:00:22;;;;;;;10.48;3.30;;;;;;;;;;4999143;28;20068;-70
2021/04/25 04:02:49;;;;;;;8.98;4.20;;;;;;;;;;5000461;28;20754;-71
2021/04/25 04:05:15;;;;;;;8.75;3.90;;;;;;;;;;4999324;28;20034;-70
2021/04/25 04:07:41;;;;;;;10.05;3.85;;;;;;;;;;5006863;28;20034;-71
2021/04/25 04:10:08;;;;;;;9.40;3.80;;;;;;;;;;5009613;28;20567;-70
2021/04/25 04:12:34;;;;;;;9.30;3.63;;;;;;;;;;5002235;28;20037;-69
2021/04/25 04:15:00;;;;;;;10.02;3.78;;;;;;;;;;4998797;28;20038;-69
2021/04/25 04:17:26;;;;;;;10.00;3.50;;;;;;;;;;5005412;28;20033;-70
2021/04/25 04:19:52;;;;;;;11.32;2.97;;;;;;;;;;5001880;28;20026;-70
2021/04/25 04:22:21;;;;;;;8.57;2.63;;;;;;;;;;4999933;28;20030;-70
2021/04/25 04:24:46;;;;;;;11.20;3.95;;;;;;;;;;5006675;28;20033;-70
2021/04/25 04:27:13;;;;;;;6.38;3.40;;;;;;;;;;5001099;28;20103;-70
2021/04/25 04:29:39;;;;;;;9.15;2.85;;;;;;;;;;5000619;28;20042;-69
2021/04/25 04:32:05;;;;;;;7.20;2.63;;;;;;;;;;5006455;28;20376;-71
2021/04/25 04:34:31;;;;;;;9.65;2.58;;;;;;;;;;5000570;28;20034;-71
2021/04/25 04:36:57;;;;;;;7.13;2.97;;;;;;;;;;5001444;28;20070;-71
2021/04/25 04:39:23;;;;;;;6.88;2.70;;;;;;;;;;5008072;28;20025;-70
2021/04/25 04:41:50;;;;;;;8.85;2.85;;;;;;;;;;5009225;28;20084;-70
2021/04/25 04:44:16;;;;;;;8.73;2.50;;;;;;;;;;5008761;28;20105;-69
2021/04/25 04:46:42;;;;;;;6.88;2.40;;;;;;;;;;5008355;28;20022;-70
2021/04/25 04:49:08;;;;;;;7.43;2.85;;;;;;;;;;5009658;28;20034;-70
2021/04/25 04:51:34;;;;;;;10.23;2.55;;;;;;;;;;5009146;28;20025;-69
2021/04/25 04:54:00;;;;;;;6.88;2.60;;;;;;;;;;5009717;28;20034;-70
2021/04/25 04:56:26;;;;;;;5.53;2.40;;;;;;;;;;5007322;28;20487;-70
2021/04/25 04:58:52;;;;;;;7.97;2.38;;;;;;;;;;4996503;28;20022;-70
2021/04/25 05:01:18;;;;;;;8.20;2.55;;;;;;;;;;4994043;28;20224;-69
2021/04/25 05:03:44;;;;;;;6.40;2.60;;;;;;;;;;4995283;28;20057;-69
2021/04/25 05:06:10;;;;;;;5.90;2.55;;;;;;;;;;4991466;28;20030;-70
2021/04/25 05:08:36;;;;;;;8.82;2.33;;;;;;;;;;4993773;28;20041;-70
2021/04/25 05:11:02;;;;;;;11.40;4.53;;;;;;;;;;4994643;28;20038;-70
2021/04/25 05:13:28;;;;;;;4.65;1.90;;;;;;;;;;4995260;28;20045;-70
2021/04/25 05:15:54;;;;;;;7.72;2.35;;;;;;;;;;4991039;28;20023;-69
2021/04/25 05:18:20;;;;;;;8.90;2.22;;;;;;;;;;5001802;28;20033;-70
2021/04/25 05:20:46;;;;;;;11.88;2.60;;;;;;;;;;4993478;28;20034;-70
2021/04/25 05:23:12;;;;;;;6.88;2.33;;;;;;;;;;4992051;28;20034;-70
2021/04/25 05:25:38;;;;;;;7.70;2.38;;;;;;;;;;4999766;28;20022;-70
2021/04/25 05:28:04;;;;;;;9.00;2.33;;;;;;;;;;4991707;28;20054;-69
2021/04/25 05:30:30;;;;;;;6.88;2.17;;;;;;;;;;4994409;28;20132;-70
2021/04/25 05:32:56;;;;;;;8.32;2.63;;;;;;;;;;4999188;28;20496;-70
2021/04/25 05:35:22;;;;;;;7.82;2.67;;;;;;;;;;4994067;28;20570;-70
2021/04/25 05:37:48;;;;;;;8.55;2.45;;;;;;;;;;4996671;28;20054;-70
2021/04/25 05:40:15;;;;;;;7.28;2.33;;;;;;;;;;4993202;28;20028;-71
2021/04/25 05:42:41;;;;;;;6.60;2.22;;;;;;;;;;4997914;28;20467;-70
2021/04/25 05:45:07;;;;;;;8.40;2.60;;;;;;;;;;5003202;28;20466;-70
2021/04/25 05:47:33;;;;;;;11.93;3.53;;;;;;;;;;4996169;28;20030;-70
2021/04/25 05:50:00;;;;;;;8.05;2.50;;;;;;;;;;5001108;28;20038;-69
2021/04/25 05:52:26;;;;;;;8.52;2.75;;;;;;;;;;5002539;28;20036;-69
2021/04/25 05:54:51;;;;;;;9.95;2.42;;;;;;;;;;4999425;28;20046;-70
2021/04/25 05:57:17;;;;;;;10.95;2.92;;;;;;;;;;5034512;28;20030;-71
2021/04/25 05:59:43;;;;;;;10.00;3.28;;;;;;;;;;5019897;28;20049;-70
2021/04/25 06:02:10;;;;;;;10.15;2.53;;;;;;;;;;5007695;28;20041;-70
2021/04/25 06:04:36;;;;;;;13.25;3.33;;;;;;;;;;5007193;28;20109;-70
2021/04/25 06:07:02;;;;;;;8.88;2.38;;;;;;;;;;5007017;28;20113;-70
2021/04/25 06:09:28;;;;;;;9.15;2.38;;;;;;;;;;4993532;28;20639;-70
2021/04/25 06:11:54;;;;;;;5.55;2.50;;;;;;;;;;4991378;28;20069;-70
2021/04/25 06:14:20;;;;;;;7.22;2.85;;;;;;;;;;4997034;28;20464;-70
2021/04/25 06:16:46;;;;;;;12.75;3.55;;;;;;;;;;4992307;28;20119;-69
2021/04/25 06:19:12;;;;;;;13.98;2.95;;;;;;;;;;4996387;28;20117;-69
2021/04/25 06:21:38;;;;;;;13.27;2.97;;;;;;;;;;5010247;28;21039;-70
2021/04/25 06:24:04;;;;;;;8.35;3.10;;;;;;;;;;5008093;28;20113;-70
2021/04/25 06:26:30;;;;;;;8.35;2.35;;;;;;;;;;5003572;28;20113;-70
2021/04/25 06:28:56;;;;;;;9.13;2.63;;;;;;;;;;4990025;28;20113;-69
2021/04/25 06:31:22;;;;;;;9.35;3.17;;;;;;;;;;4992765;28;20022;-70
2021/04/25 06:33:49;;;;;;;7.80;1.85;;;;;;;;;;4993596;28;20033;-70
2021/04/25 06:36:15;;;;;;;6.60;2.40;;;;;;;;;;4999829;28;20017;-70
2021/04/25 06:38:41;;;;;;;7.70;2.50;;;;;;;;;;4992945;28;20396;-69
2021/04/25 06:41:07;;;;;;;22.38;3.78;;;;;;;;;;4996925;28;20026;-74
2021/04/25 06:43:33;;;;;;;11.90;2.40;;;;;;;;;;4991158;28;20026;-69
2021/04/25 06:46:02;;;;;;;8.20;2.05;;;;;;;;;;4997179;28;20030;-69
2021/04/25 06:48:28;;;;;;;5.80;1.63;;;;;;;;;;4993447;28;20029;-69
2021/04/25 06:50:54;;;;;;;5.22;1.50;;;;;;;;;;4993130;28;20034;-70
2021/04/25 06:53:20;;;;;;;9.57;1.27;;;;;;;;;;5001227;28;20033;-70
2021/04/25 06:55:46;;;;;;;6.88;1.50;;;;;;;;;;4992936;28;20623;-70
2021/04/25 06:58:12;;;;;;;5.95;1.20;;;;;;;;;;4993193;28;20026;-70
2021/04/25 07:00:38;;;;;;;7.80;2.50;;;;;;;;;;4996863;28;20061;-69
2021/04/25 07:03:04;;;;;;;5.05;1.48;;;;;;;;;;4996498;28;20030;-70
2021/04/25 07:05:30;;;;;;;7.18;1.65;;;;;;;;;;4991624;28;20030;-70
2021/04/25 07:07:59;;;;;;;6.53;1.70;;;;;;;;;;4993966;28;20038;-70
2021/04/25 07:10:25;;;;;;;5.55;1.33;;;;;;;;;;4990130;28;20080;-71
2021/04/25 07:12:51;;;;;;;8.60;1.20;;;;;;;;;;4991445;28;20038;-70
2021/04/25 07:15:17;;;;;;;11.02;2.65;;;;;;;;;;4994942;28;20033;-70
2021/04/25 07:17:44;;;;;;;5.03;2.60;;;;;;;;;;4996638;28;20030;-69
2021/04/25 07:20:10;;;;;;;5.15;1.52;;;;;;;;;;4996587;28;20348;-70
2021/04/25 07:22:37;;;;;;;4.40;1.00;;;;;;;;;;4990458;28;20040;-70
2021/04/25 07:25:03;;;;;;;4.95;1.25;;;;;;;;;;4997188;28;20046;-69
2021/04/25 07:27:29;;;;;;;5.72;1.83;;;;;;;;;;5005114;28;20555;-70
2021/04/25 07:29:55;;;;;;;7.60;1.92;;;;;;;;;;4996545;28;20109;-69
2021/04/25 07:32:21;;;;;;;4.47;1.17;;;;;;;;;;4995856;28;20029;-70
2021/04/25 07:34:47;;;;;;;7.22;1.88;;;;;;;;;;4995117;28;20034;-69
2021/04/25 07:37:13;;;;;;;7.72;1.30;;;;;;;;;;4990832;28;20080;-70
2021/04/25 07:39:40;;;;;;;4.30;0.95;;;;;;;;;;4994779;28;20065;-69
2021/04/25 07:42:06;;;;;;;8.77;1.67;;;;;;;;;;4997495;28;20022;-70
2021/04/25 07:44:32;;;;;;;8.05;1.75;;;;;;;;;;5000601;28;20088;-70
2021/04/25 07:46:59;;;;;;;7.45;1.50;;;;;;;;;;5005260;28;20033;-69
2021/04/25 07:49:25;;;;;;;8.88;2.42;;;;;;;;;;5011901;28;20083;-70
2021/04/25 07:51:51;;;;;;;6.32;1.52;;;;;;;;;;5005200;28;20025;-70
2021/04/25 07:54:17;;;;;;;8.40;1.80;;;;;;;;;;5010869;28;20038;-69
2021/04/25 07:56:43;;;;;;;10.23;1.95;;;;;;;;;;5017195;28;20034;-69
2021/04/25 07:59:08;;;;;;;13.10;1.73;;;;;;;;;;5011149;28;20033;-69
2021/04/25 08:01:34;;;;;;;9.57;1.67;;;;;;;;;;4999148;28;20100;-70
2021/04/25 08:04:01;;;;;;;9.85;1.50;;;;;;;;;;5006098;28;20064;-70
2021/04/25 08:06:27;;;;;;;4.82;1.65;;;;;;;;;;5009275;28;20791;-69
2021/04/25 08:08:53;;;;;;;9.25;1.20;;;;;;;;;;4995400;28;20061;-70
2021/04/25 08:11:19;;;;;;;5.65;1.42;;;;;;;;;;4997469;28;20033;-70
2021/04/25 08:13:48;;;;;;;5.22;1.25;;;;;;;;;;4992917;28;20031;-70
2021/04/25 08:16:14;;;;;;;8.43;1.80;;;;;;;;;;5004089;28;20110;-71
2021/04/25 08:18:40;;;;;;;9.30;1.60;;;;;;;;;;4992886;28;20041;-70
2021/04/25 08:21:09;;;;;;;3.83;1.08;;;;;;;;;;4993241;28;20133;-70
2021/04/25 08:23:36;;;;;;;6.07;1.20;;;;;;;;;;5005480;28;20022;-70
2021/04/25 08:26:02;;;;;;;5.10;1.52;;;;;;;;;;5007566;28;20789;-69
2021/04/25 08:28:28;;;;;;;10.40;2.10;;;;;;;;;;5005618;28;20038;-70
2021/04/25 08:30:54;;;;;;;3.42;1.13;;;;;;;;;;4993057;28;20030;-69
2021/04/25 08:33:20;;;;;;;8.27;2.10;;;;;;;;;;4991371;28;20038;-70
2021/04/25 08:35:46;;;;;;;7.85;1.90;;;;;;;;;;4995541;28;20029;-69
2021/04/25 08:38:14;;;;;;;9.40;1.77;;;;;;;;;;4992481;28;20023;-70
2021/04/25 08:40:41;;;;;;;8.02;1.42;;;;;;;;;;4999067;28;20114;-70
2021/04/25 08:43:11;;;;;;;5.07;1.25;;;;;;;;;;4996034;28;20038;-69
2021/04/25 08:45:37;;;;;;;;;;;;;;;;;;4993789;28;20076;-69
2021/04/25 08:48:04;;;;;;;4.72;1.10;;;;;;;;;;4992353;28;20237;-69
2021/04/25 08:50:31;;;;;;;11.65;2.03;;;;;;;;;;4992690;28;20038;-69
2021/04/25 08:52:58;;;;;;;5.10;0.90;;;;;;;;;;4990477;28;20033;-69
2021/04/25 08:55:24;;;;;;;3.88;1.10;;;;;;;;;;4992119;28;20029;-69
2021/04/25 08:57:50;;;;;;;5.70;1.10;;;;;;;;;;4993885;28;20518;-69
2021/04/25 09:00:16;;;;;;;7.43;1.08;;;;;;;;;;4993247;28;20058;-69
2021/04/25 09:02:43;;;;;;;7.13;1.15;;;;;;;;;;5000169;28;20038;-69
2021/04/25 09:05:09;;;;;;;7.13;1.15;;;;;;;;;;5021780;28;20032;-69
2021/04/25 09:07:35;;;;;;;5.78;1.42;;;;;;;;;;5029351;28;20120;-70
2021/04/25 09:10:06;;;;;;;8.05;1.70;;;;;;;;;;5021654;28;20560;-70
2021/04/25 09:12:44;;;;;;;8.20;2.03;;;;;;;;;;5022925;28;20487;-69
2021/04/25 09:15:13;;;;;;;5.43;1.35;;;;;;;;;;5018484;28;20026;-70
2021/04/25 09:17:48;;;;;;;8.50;1.60;;;;;;;;;;5016243;28;20399;-69
2021/04/25 09:20:14;;;;;;;7.40;1.42;;;;;;;;;;5014816;28;20069;-69
2021/04/25 09:22:42;;;;;;;7.28;1.77;;;;;;;;;;5015510;28;20105;-69
2021/04/25 09:25:09;;;;;;;5.80;1.30;;;;;;;;;;5016352;28;20832;-70
2021/04/25 09:27:35;;;;;;;7.10;1.05;;;;;;;;;;5020445;28;20083;-70
2021/04/25 09:30:02;;;;;;;8.25;1.80;;;;;;;;;;5025479;28;20041;-69
2021/04/25 09:32:30;;;;;;;8.60;1.73;;;;;;;;;;5019703;28;20033;-69
2021/04/25 09:35:15;;;;;;;9.65;1.13;;;;;;;;;;5024104;28;20030;-68
2021/04/25 09:37:43;;;;;;;7.47;1.33;;;;;;;;;;5026095;28;20685;-68
2021/04/25 09:40:11;;;;;;;3.97;0.98;;;;;;;;;;5019075;28;20483;-69
2021/04/25 09:42:55;;;;;;;9.77;1.48;;;;;;;;;;5022628;28;20033;-67
2021/04/25 09:45:23;;;;;;;10.27;1.70;;;;;;;;;;5028041;28;20095;-67
2021/04/25 09:47:49;;;;;;;10.52;1.60;;;;;;;;;;5022461;28;20022;-68
2021/04/25 09:50:17;;;;;;;11.90;1.90;;;;;;;;;;5027934;28;20037;-68
2021/04/25 09:52:48;;;;;;;6.22;1.05;;;;;;;;;;5026244;28;20083;-68
2021/04/25 09:55:15;;;;;;;;;;;;;;;;;;5019389;28;20061;-67
2021/04/25 09:57:41;;;;;;;10.02;2.25;;;;;;;;;;5021051;28;19913;-67
2021/04/25 10:00:07;;;;;;;4.47;1.02;;;;;;;;;;5019406;28;20100;-68
2021/04/25 10:02:53;;;;;;;9.88;1.83;;;;;;;;;;5026557;28;20036;-68
2021/04/25 10:05:19;;;;;;;9.23;1.55;;;;;;;;;;5024022;28;20269;-68
2021/04/25 10:07:45;;;;;;;7.55;1.25;;;;;;;;;;5037842;28;20489;-71
2021/04/25 10:10:16;;;;;;;6.70;1.23;;;;;;;;;;5023215;28;20394;-68
2021/04/25 10:12:43;;;;;;;7.53;1.30;;;;;;;;;;5018710;28;20034;-71
2021/04/25 10:15:10;;;;;;;9.57;1.38;;;;;;;;;;5018513;28;20044;-67
2021/04/25 10:17:36;;;;;;;11.25;1.42;;;;;;;;;;5010446;28;20487;-68
2021/04/25 10:20:03;;;;;;;10.82;1.42;;;;;;;;;;5024127;28;20038;-68
2021/04/25 10:22:29;;;;;;;8.98;1.42;;;;;;;;;;5021020;28;20041;-67
2021/04/25 10:24:55;;;;;;;4.13;1.35;;;;;;;;;;5012828;28;20041;-67
2021/04/25 10:27:24;;;;;;;7.80;1.30;;;;;;;;;;5019732;28;20323;-67
2021/04/25 10:29:50;;;;;;;6.80;1.42;;;;;;;;;;5015725;28;20144;-68
2021/04/25 10:32:17;;;;;;;3.75;1.10;;;;;;;;;;5019605;28;20116;-67
2021/04/25 10:34:43;;;;;;;7.15;1.40;;;;;;;;;;5026225;28;20059;-67
2021/04/25 10:37:09;;;;;;;7.80;1.45;;;;;;;;;;5022300;28;20033;-67
2021/04/25 10:39:56;;;;;;;7.25;1.63;;;;;;;;;;5014922;28;20434;-67
2021/04/25 10:42:26;;;;;;;7.93;1.25;;;;;;;;;;5022015;28;20026;-67
2021/04/25 10:44:59;;;;;;;8.25;1.83;;;;;;;;;;5045962;28;20017;-67
2021/04/25 10:47:25;;;;;;;7.15;1.65;;;;;;;;;;5021561;28;20099;-67
2021/04/25 10:49:52;;;;;;;8.10;1.85;;;;;;;;;;5027075;28;20033;-67
2021/04/25 10:52:25;;;;;;;6.25;1.38;;;;;;;;;;5017049;28;20094;-68
2021/04/25 10:55:32;;;;;;;7.97;1.75;;;;;;;;;;5006445;28;20516;-67
2021/04/25 10:58:02;;;;;;;6.28;1.33;;;;;;;;;;4993359;28;20054;-68
2021/04/25 11:00:31;;;;;;;10.90;2.50;;;;;;;;;;5007549;28;20488;-69
2021/04/25 11:03:01;;;;;;;4.95;1.52;;;;;;;;;;5012495;28;20176;-70
2021/04/25 11:05:36;;;;;;;8.65;1.45;;;;;;;;;;5015839;28;20479;-69
2021/04/25 11:08:03;;;;;;;7.40;1.48;;;;;;;;;;5015939;28;20034;-69
2021/04/25 11:10:44;;;;;;;7.55;1.35;;;;;;;;;;5022985;28;20491;-69
2021/04/25 11:13:29;;;;;;;6.28;1.40;;;;;;;;;;5020991;28;20030;-69
2021/04/25 11:15:55;;;;;;;8.68;1.30;;;;;;;;;;5023756;28;20035;-71
2021/04/25 11:18:40;;;;;;;10.02;1.75;;;;;;;;;;5027921;28;20056;-70
2021/04/25 11:21:24;;;;;;;7.53;1.40;;;;;;;;;;5038376;28;20080;-70
2021/04/25 11:23:50;;;;;;;6.10;1.65;;;;;;;;;;5030265;28;20486;-69
2021/04/25 11:29:09;;;;;;;9.02;1.65;;;;;;;;;;5022233;28;20383;-69
2021/04/25 11:31:52;;;;;;;4.43;1.40;;;;;;;;;;5032367;28;20025;-68
2021/04/25 11:34:32;;;;;;;6.32;1.50;;;;;;;;;;5024488;28;20049;-69
2021/04/25 11:37:01;;;;;;;9.77;1.40;;;;;;;;;;5032090;28;20033;-69
2021/04/25 11:39:28;;;;;;;5.00;1.20;;;;;;;;;;5030237;28;20471;-69
2021/04/25 11:41:54;;;;;;;6.45;1.60;;;;;;;;;;5028936;28;20529;-69
2021/04/25 11:44:30;;;;;;;4.45;1.15;;;;;;;;;;5022314;28;20033;-69
2021/04/25 11:46:57;;;;;;;5.80;1.02;;;;;;;;;;5027182;28;20050;-69
2021/04/25 11:49:29;;;;;;;3.95;1.65;;;;;;;;;;5030819;28;20032;-69
2021/04/25 11:52:08;;;;;;;3.83;1.40;;;;;;;;;;5031721;28;20042;-69
2021/04/25 11:54:34;;;;;;;7.30;1.30;;;;;;;;;;5029036;28;20057;-69
2021/04/25 11:57:27;;;;;;;5.88;1.25;;;;;;;;;;5025873;28;20080;-69
2021/04/25 11:59:52;;;;;;;5.45;1.23;;;;;;;;;;5027248;28;20073;-71
2021/04/25 12:02:19;;;;;;;4.68;1.30;;;;;;;;;;5026760;28;20035;-71
2021/04/25 12:04:48;;;;;;;4.82;1.67;;;;;;;;;;5016675;28;20026;-70
2021/04/25 12:07:33;;;;;;;4.03;0.63;;;;;;;;;;5022305;28;20053;-70
2021/04/25 12:09:59;;;;;;;4.38;1.30;;;;;;;;;;5016781;28;20137;-70
2021/04/25 12:12:26;;;;;;;5.28;1.20;;;;;;;;;;5014004;28;20403;-70
2021/04/25 12:15:06;;;;;;;6.45;1.55;;;;;;;;;;5017487;28;20519;-70
2021/04/25 12:17:32;;;;;;;;;;;;;;;;;;5013652;28;20022;-70
2021/04/25 12:20:01;;;;;;;4.15;0.80;;;;;;;;;;5013673;28;19964;-70
2021/04/25 12:22:27;;;;;;;6.43;1.45;;;;;;;;;;5016190;28;20030;-72
2021/04/25 12:24:57;;;;;;;5.82;1.10;;;;;;;;;;5018710;28;20399;-70
2021/04/25 12:27:23;;;;;;;4.13;0.90;;;;;;;;;;5013047;28;20029;-70
2021/04/25 12:29:49;;;;;;;5.05;1.25;;;;;;;;;;5017766;28;20021;-70
2021/04/25 12:32:19;;;;;;;7.80;1.30;;;;;;;;;;5018181;28;20030;-71
2021/04/25 12:35:04;;;;;;;5.72;1.45;;;;;;;;;;5030601;28;20553;-70
2021/04/25 12:37:35;;;;;;;9.68;1.83;;;;;;;;;;5030052;28;20024;-70
2021/04/25 12:40:02;;;;;;;5.85;1.13;;;;;;;;;;5026692;28;20546;-70
2021/04/25 12:42:28;;;;;;;7.22;1.63;;;;;;;;;;5021647;28;20129;-71
2021/04/25 12:44:54;;;;;;;4.53;1.08;;;;;;;;;;5020288;28;20089;-70
2021/04/25 12:47:34;;;;;;;3.40;1.42;;;;;;;;;;5021776;28;20037;-70
2021/04/25 12:50:13;;;;;;;9.30;2.08;;;;;;;;;;5026187;28;20029;-70
2021/04/25 12:52:38;;;;;;;5.43;1.35;;;;;;;;;;5015400;28;20032;-70
2021/04/25 12:55:05;;;;;;;6.05;1.60;;;;;;;;;;5012672;28;20034;-70
2021/04/25 12:57:31;;;;;;;3.92;0.93;;;;;;;;;;5016500;28;20030;-70
2021/04/25 12:59:57;;;;;;;3.92;0.77;;;;;;;;;;5015240;28;20041;-70
2021/04/25 13:02:31;;;;;;;4.93;1.08;;;;;;;;;;5013143;28;20029;-70
2021/04/25 13:05:03;;;;;;;4.90;0.90;;;;;;;;;;5010942;28;20038;-70
2021/04/25 13:07:36;;;;;;;5.43;1.02;;;;;;;;;;5010731;28;20092;-70
2021/04/25 13:10:05;;;;;;;4.72;1.15;;;;;;;;;;5021495;28;20029;-70
2021/04/25 13:12:32;;;;;;;3.90;0.73;;;;;;;;;;5013377;28;20127;-68
2021/04/25 13:15:03;;;;;;;4.85;1.00;;;;;;;;;;5016197;28;20034;-68
2021/04/25 13:17:53;;;;;;;6.18;1.00;;;;;;;;;;5014900;28;20067;-68
2021/04/25 13:20:19;;;;;;;6.20;1.15;;;;;;;;;;5019062;28;20041;-68
2021/04/25 13:22:52;;;;;;;5.32;1.10;;;;;;;;;;5016462;28;20025;-68
2021/04/25 13:25:18;;;;;;;3.60;0.90;;;;;;;;;;5019377;28;20040;-68
2021/04/25 13:27:44;;;;;;;3.72;1.30;;;;;;;;;;5018075;28;20060;-68
2021/04/25 13:30:10;;;;;;;7.93;1.15;;;;;;;;;;5019791;28;20117;-68
2021/04/25 13:32:37;;;;;;;5.40;0.98;;;;;;;;;;5020895;28;20034;-69
2021/04/25 13:35:02;;;;;;;3.20;1.02;;;;;;;;;;5018635;28;20092;-69
2021/04/25 13:37:28;;;;;;;5.78;1.20;;;;;;;;;;5020765;28;20035;-68
2021/04/25 13:39:54;;;;;;;4.65;1.88;;;;;;;;;;5018627;28;20494;-69
2021/04/25 13:42:20;;;;;;;8.90;2.20;;;;;;;;;;5017187;28;20399;-69
2021/04/25 13:44:46;;;;;;;4.20;1.45;;;;;;;;;;5018999;28;20031;-69
2021/04/25 13:47:12;;;;;;;5.80;1.10;;;;;;;;;;5018278;28;20029;-69
2021/04/25 13:49:38;;;;;;;4.13;1.00;;;;;;;;;;5014528;28;20033;-69
2021/04/25 13:52:04;;;;;;;7.50;1.48;;;;;;;;;;5008813;28;20029;-69
2021/04/25 13:54:30;;;;;;;3.35;1.35;;;;;;;;;;5010530;28;20030;-69
2021/04/25 13:56:56;;;;;;;7.72;1.45;;;;;;;;;;5011409;28;20037;-69
2021/04/25 13:59:23;;;;;;;5.13;1.48;;;;;;;;;;5014634;28;20041;-68
2021/04/25 14:01:49;;;;;;;5.45;1.10;;;;;;;;;;5038575;28;20034;-69
2021/04/25 14:04:15;;;;;;;5.68;0.95;;;;;;;;;;5038433;28;20044;-69
2021/04/25 14:06:41;;;;;;;5.97;1.13;;;;;;;;;;5021283;28;20041;-69
2021/04/25 14:09:07;;;;;;;4.43;0.90;;;;;;;;;;5024783;28;20080;-69
2021/04/25 14:11:34;;;;;;;3.47;1.17;;;;;;;;;;5015400;28;20040;-69
2021/04/25 14:14:01;;;;;;;6.85;1.70;;;;;;;;;;5018410;28;20034;-69
2021/04/25 14:16:28;;;;;;;6.95;1.75;;;;;;;;;;5019144;28;20029;-69
2021/04/25 14:18:55;;;;;;;4.95;1.77;;;;;;;;;;5029846;28;20108;-70
2021/04/25 14:21:21;;;;;;;6.07;1.52;;;;;;;;;;5018900;28;20064;-69
2021/04/25 14:23:47;;;;;;;5.93;1.33;;;;;;;;;;5034253;28;20064;-70
2021/04/25 14:26:13;;;;;;;5.47;1.55;;;;;;;;;;5027400;28;20116;-69
2021/04/25 14:28:39;;;;;;;5.20;1.15;;;;;;;;;;5021795;28;20034;-69
2021/04/25 14:31:05;;;;;;;4.32;1.00;;;;;;;;;;5021172;28;20562;-70
2021/04/25 14:33:31;;;;;;;8.35;1.33;;;;;;;;;;5017525;28;20044;-69
2021/04/25 14:35:57;;;;;;;3.88;1.30;;;;;;;;;;5016549;28;20392;-70
2021/04/25 14:38:23;;;;;;;7.57;1.67;;;;;;;;;;5013168;28;20453;-69
2021/04/25 14:40:49;;;;;;;7.45;1.48;;;;;;;;;;5018817;28;20486;-69
2021/04/25 14:43:15;;;;;;;7.22;1.45;;;;;;;;;;5015744;28;20435;-70
2021/04/25 14:45:44;;;;;;;5.57;1.23;;;;;;;;;;5015684;28;20574;-69